sensor_id;sensor_type;location;lat;lon;timestamp;P1;durP1;ratioP1;P2;durP2;ratioP2
43807;SDS011;29438;50.664;10.098;2022-10-16T00:01:29;2.30;;;0.70;;
43807;SDS011;29438;50.664;10.098;2022-10-16T00:03:56;1.25;;;0.50;;
43807;SDS011;29438;50.664;10.098;2022-10-16T00:06:23;1.45;;;0.55;;
43807;SDS011;29438;50.664;10.098;2022-10-16T00:08:50;1.70;;;0.70;;
43807;SDS011;29438;50.664;10.098;2022-10-16T00:11:17;1.45;;;0.80;;
43807;SDS011;29438;50.664;10.098;2022-10-16T00:13:47;1.33;;;0.50;;
43807;SDS011;29438;50.664;10.098;2022-10-16T00:16:15;1.58;;;0.60;;
43807;SDS011;29438;50.664;10.098;2022-10-16T00:18:41;1.63;;;0.70;;
43807;SDS011;29438;50.664;10.098;2022-10-16T00:21:08;1.35;;;0.55;;
43807;SDS011;29438;50.664;10.098;2022-10-16T00:23:35;1.30;;;0.50;;
43807;SDS011;29438;50.664;10.098;2022-10-16T00:26:03;1.13;;;0.47;;
43807;SDS011;29438;50.664;10.098;2022-10-16T00:28:30;2.28;;;0.80;;
43807;SDS011;29438;50.664;10.098;2022-10-16T00:30:56;1.27;;;0.43;;
43807;SDS011;29438;50.664;10.098;2022-10-16T00:33:22;1.10;;;0.57;;
43807;SDS011;29438;50.664;10.098;2022-10-16T00:35:48;1.13;;;0.50;;
43807;SDS011;29438;50.664;10.098;2022-10-16T00:38:13;0.90;;;0.40;;
43807;SDS011;29438;50.664;10.098;2022-10-16T00:40:39;1.23;;;0.40;;
43807;SDS011;29438;50.664;10.098;2022-10-16T00:43:12;1.10;;;0.40;;
43807;SDS011;29438;50.664;10.098;2022-10-16T00:45:59;1.20;;;0.40;;
43807;SDS011;29438;50.664;10.098;2022-10-16T00:48:25;1.20;;;0.45;;
43807;SDS011;29438;50.664;10.098;2022-10-16T00:50:51;1.13;;;0.40;;
43807;SDS011;29438;50.664;10.098;2022-10-16T00:53:18;1.55;;;0.50;;
43807;SDS011;29438;50.664;10.098;2022-10-16T00:55:44;1.17;;;0.45;;
43807;SDS011;29438;50.664;10.098;2022-10-16T00:58:11;1.25;;;0.40;;
43807;SDS011;29438;50.664;10.098;2022-10-16T01:00:36;0.90;;;0.30;;
43807;SDS011;29438;50.664;10.098;2022-10-16T01:03:03;1.08;;;0.50;;
43807;SDS011;29438;50.664;10.098;2022-10-16T01:05:49;1.38;;;0.47;;
43807;SDS011;29438;50.664;10.098;2022-10-16T01:08:25;1.00;;;0.30;;
43807;SDS011;29438;50.664;10.098;2022-10-16T01:11:01;1.98;;;0.68;;
43807;SDS011;29438;50.664;10.098;2022-10-16T01:13:35;1.88;;;0.55;;
43807;SDS011;29438;50.664;10.098;2022-10-16T01:16:12;1.60;;;0.50;;
43807;SDS011;29438;50.664;10.098;2022-10-16T01:18:46;1.42;;;0.50;;
43807;SDS011;29438;50.664;10.098;2022-10-16T01:21:28;2.33;;;0.70;;
43807;SDS011;29438;50.664;10.098;2022-10-16T01:32:38;1.50;;;0.47;;
43807;SDS011;29438;50.664;10.098;2022-10-16T01:35:13;2.00;;;0.40;;
43807;SDS011;29438;50.664;10.098;2022-10-16T01:40:13;2.42;;;0.70;;
43807;SDS011;29438;50.664;10.098;2022-10-16T01:42:42;1.35;;;0.57;;
43807;SDS011;29438;50.664;10.098;2022-10-16T01:45:13;1.35;;;0.70;;
43807;SDS011;29438;50.664;10.098;2022-10-16T01:47:43;1.20;;;0.50;;
43807;SDS011;29438;50.664;10.098;2022-10-16T01:50:09;1.50;;;0.60;;
43807;SDS011;29438;50.664;10.098;2022-10-16T01:52:38;2.28;;;0.57;;
43807;SDS011;29438;50.664;10.098;2022-10-16T01:55:07;1.50;;;0.50;;
43807;SDS011;29438;50.664;10.098;2022-10-16T01:57:36;1.42;;;0.65;;
43807;SDS011;29438;50.664;10.098;2022-10-16T02:00:07;1.45;;;0.60;;
43807;SDS011;29438;50.664;10.098;2022-10-16T02:02:35;1.50;;;0.40;;
43807;SDS011;29438;50.664;10.098;2022-10-16T02:05:24;1.42;;;0.40;;
43807;SDS011;29438;50.664;10.098;2022-10-16T02:08:10;1.30;;;0.60;;
43807;SDS011;29438;50.664;10.098;2022-10-16T02:10:36;1.15;;;0.40;;
43807;SDS011;29438;50.664;10.098;2022-10-16T02:13:10;1.42;;;0.40;;
43807;SDS011;29438;50.664;10.098;2022-10-16T02:15:46;2.10;;;0.50;;
43807;SDS011;29438;50.664;10.098;2022-10-16T02:18:12;1.55;;;0.60;;
43807;SDS011;29438;50.664;10.098;2022-10-16T02:20:48;1.10;;;0.32;;
43807;SDS011;29438;50.664;10.098;2022-10-16T02:23:23;1.10;;;0.40;;
43807;SDS011;29438;50.664;10.098;2022-10-16T02:25:58;1.33;;;0.50;;
43807;SDS011;29438;50.664;10.098;2022-10-16T02:28:30;1.17;;;0.60;;
43807;SDS011;29438;50.664;10.098;2022-10-16T02:33:29;1.27;;;0.50;;
43807;SDS011;29438;50.664;10.098;2022-10-16T02:35:57;1.02;;;0.40;;
43807;SDS011;29438;50.664;10.098;2022-10-16T02:38:23;2.15;;;0.50;;
43807;SDS011;29438;50.664;10.098;2022-10-16T02:40:50;1.52;;;0.73;;
43807;SDS011;29438;50.664;10.098;2022-10-16T02:43:16;1.10;;;0.40;;
43807;SDS011;29438;50.664;10.098;2022-10-16T02:45:42;1.50;;;0.60;;
43807;SDS011;29438;50.664;10.098;2022-10-16T02:48:08;1.73;;;0.52;;
43807;SDS011;29438;50.664;10.098;2022-10-16T02:50:33;1.20;;;0.47;;
43807;SDS011;29438;50.664;10.098;2022-10-16T02:52:59;1.42;;;0.57;;
43807;SDS011;29438;50.664;10.098;2022-10-16T02:55:24;1.33;;;0.60;;
43807;SDS011;29438;50.664;10.098;2022-10-16T02:57:50;2.95;;;0.45;;
43807;SDS011;29438;50.664;10.098;2022-10-16T03:00:16;1.58;;;0.70;;
43807;SDS011;29438;50.664;10.098;2022-10-16T03:02:42;1.73;;;0.63;;
43807;SDS011;29438;50.664;10.098;2022-10-16T03:05:08;1.67;;;0.60;;
43807;SDS011;29438;50.664;10.098;2022-10-16T03:07:35;1.25;;;0.50;;
43807;SDS011;29438;50.664;10.098;2022-10-16T03:10:00;1.17;;;0.50;;
43807;SDS011;29438;50.664;10.098;2022-10-16T03:12:29;1.40;;;0.52;;
43807;SDS011;29438;50.664;10.098;2022-10-16T03:14:55;1.80;;;0.43;;
43807;SDS011;29438;50.664;10.098;2022-10-16T03:17:22;1.25;;;0.40;;
43807;SDS011;29438;50.664;10.098;2022-10-16T03:19:48;1.30;;;0.50;;
43807;SDS011;29438;50.664;10.098;2022-10-16T03:22:13;1.30;;;0.43;;
43807;SDS011;29438;50.664;10.098;2022-10-16T03:24:39;1.10;;;0.60;;
43807;SDS011;29438;50.664;10.098;2022-10-16T03:27:05;1.90;;;0.60;;
43807;SDS011;29438;50.664;10.098;2022-10-16T03:29:30;1.10;;;0.43;;
43807;SDS011;29438;50.664;10.098;2022-10-16T03:31:57;2.55;;;0.95;;
43807;SDS011;29438;50.664;10.098;2022-10-16T03:34:23;1.60;;;0.50;;
43807;SDS011;29438;50.664;10.098;2022-10-16T03:36:49;1.27;;;0.50;;
43807;SDS011;29438;50.664;10.098;2022-10-16T03:39:15;1.10;;;0.50;;
43807;SDS011;29438;50.664;10.098;2022-10-16T03:41:40;1.67;;;0.40;;
43807;SDS011;29438;50.664;10.098;2022-10-16T03:44:06;0.98;;;0.30;;
43807;SDS011;29438;50.664;10.098;2022-10-16T03:46:32;1.20;;;0.43;;
43807;SDS011;29438;50.664;10.098;2022-10-16T03:48:57;1.75;;;0.50;;
43807;SDS011;29438;50.664;10.098;2022-10-16T03:51:23;1.30;;;0.43;;
43807;SDS011;29438;50.664;10.098;2022-10-16T03:53:49;1.00;;;0.40;;
43807;SDS011;29438;50.664;10.098;2022-10-16T03:56:14;1.13;;;0.47;;
43807;SDS011;29438;50.664;10.098;2022-10-16T03:58:40;0.90;;;0.30;;
43807;SDS011;29438;50.664;10.098;2022-10-16T04:01:06;1.27;;;0.50;;
43807;SDS011;29438;50.664;10.098;2022-10-16T04:03:31;1.30;;;0.52;;
43807;SDS011;29438;50.664;10.098;2022-10-16T04:05:57;1.10;;;0.45;;
43807;SDS011;29438;50.664;10.098;2022-10-16T04:08:23;1.30;;;0.35;;
43807;SDS011;29438;50.664;10.098;2022-10-16T04:10:48;1.48;;;0.60;;
43807;SDS011;29438;50.664;10.098;2022-10-16T04:13:14;2.00;;;0.60;;
43807;SDS011;29438;50.664;10.098;2022-10-16T04:15:40;1.45;;;0.52;;
43807;SDS011;29438;50.664;10.098;2022-10-16T04:18:05;1.67;;;0.50;;
43807;SDS011;29438;50.664;10.098;2022-10-16T04:20:32;1.42;;;0.45;;
43807;SDS011;29438;50.664;10.098;2022-10-16T04:22:58;0.93;;;0.30;;
43807;SDS011;29438;50.664;10.098;2022-10-16T04:25:23;0.80;;;0.28;;
43807;SDS011;29438;50.664;10.098;2022-10-16T04:27:49;1.10;;;0.40;;
43807;SDS011;29438;50.664;10.098;2022-10-16T04:30:15;0.93;;;0.40;;
43807;SDS011;29438;50.664;10.098;2022-10-16T04:32:40;0.95;;;0.25;;
43807;SDS011;29438;50.664;10.098;2022-10-16T04:35:06;0.98;;;0.40;;
43807;SDS011;29438;50.664;10.098;2022-10-16T04:37:32;0.73;;;0.35;;
43807;SDS011;29438;50.664;10.098;2022-10-16T04:39:58;0.77;;;0.15;;
43807;SDS011;29438;50.664;10.098;2022-10-16T04:42:23;1.02;;;0.30;;
43807;SDS011;29438;50.664;10.098;2022-10-16T04:44:49;1.98;;;0.50;;
43807;SDS011;29438;50.664;10.098;2022-10-16T04:47:15;2.70;;;0.40;;
43807;SDS011;29438;50.664;10.098;2022-10-16T04:49:40;1.33;;;0.40;;
43807;SDS011;29438;50.664;10.098;2022-10-16T04:52:06;1.55;;;0.32;;
43807;SDS011;29438;50.664;10.098;2022-10-16T04:54:33;0.93;;;0.20;;
43807;SDS011;29438;50.664;10.098;2022-10-16T04:56:59;0.82;;;0.28;;
43807;SDS011;29438;50.664;10.098;2022-10-16T04:59:24;0.98;;;0.17;;
43807;SDS011;29438;50.664;10.098;2022-10-16T05:01:50;1.05;;;0.20;;
43807;SDS011;29438;50.664;10.098;2022-10-16T05:04:15;0.80;;;0.20;;
43807;SDS011;29438;50.664;10.098;2022-10-16T05:06:41;0.43;;;0.15;;
43807;SDS011;29438;50.664;10.098;2022-10-16T05:09:07;1.05;;;0.10;;
43807;SDS011;29438;50.664;10.098;2022-10-16T05:11:33;0.47;;;0.10;;
43807;SDS011;29438;50.664;10.098;2022-10-16T05:13:59;0.45;;;0.10;;
43807;SDS011;29438;50.664;10.098;2022-10-16T05:16:25;1.05;;;0.20;;
43807;SDS011;29438;50.664;10.098;2022-10-16T05:18:51;0.57;;;0.13;;
43807;SDS011;29438;50.664;10.098;2022-10-16T05:21:17;0.75;;;0.28;;
43807;SDS011;29438;50.664;10.098;2022-10-16T05:23:42;0.30;;;0.10;;
43807;SDS011;29438;50.664;10.098;2022-10-16T05:26:08;0.75;;;0.10;;
43807;SDS011;29438;50.664;10.098;2022-10-16T05:28:34;0.40;;;0.10;;
43807;SDS011;29438;50.664;10.098;2022-10-16T05:31:03;0.95;;;0.15;;
43807;SDS011;29438;50.664;10.098;2022-10-16T05:33:33;0.43;;;0.20;;
43807;SDS011;29438;50.664;10.098;2022-10-16T05:36:06;0.73;;;0.10;;
43807;SDS011;29438;50.664;10.098;2022-10-16T05:38:34;0.68;;;0.10;;
43807;SDS011;29438;50.664;10.098;2022-10-16T05:41:00;0.50;;;0.10;;
43807;SDS011;29438;50.664;10.098;2022-10-16T05:43:27;0.50;;;0.10;;
43807;SDS011;29438;50.664;10.098;2022-10-16T05:45:57;0.82;;;0.10;;
43807;SDS011;29438;50.664;10.098;2022-10-16T05:48:24;0.57;;;0.10;;
43807;SDS011;29438;50.664;10.098;2022-10-16T05:51:00;0.70;;;0.20;;
43807;SDS011;29438;50.664;10.098;2022-10-16T05:53:28;0.70;;;0.15;;
43807;SDS011;29438;50.664;10.098;2022-10-16T05:55:54;1.00;;;0.20;;
43807;SDS011;29438;50.664;10.098;2022-10-16T05:58:21;0.35;;;0.10;;
43807;SDS011;29438;50.664;10.098;2022-10-16T06:00:57;0.32;;;0.10;;
43807;SDS011;29438;50.664;10.098;2022-10-16T06:03:24;0.52;;;0.10;;
43807;SDS011;29438;50.664;10.098;2022-10-16T06:05:50;1.00;;;0.10;;
43807;SDS011;29438;50.664;10.098;2022-10-16T06:08:16;0.60;;;0.10;;
43807;SDS011;29438;50.664;10.098;2022-10-16T06:10:42;0.47;;;0.10;;
43807;SDS011;29438;50.664;10.098;2022-10-16T06:13:09;0.68;;;0.20;;
43807;SDS011;29438;50.664;10.098;2022-10-16T06:15:34;0.95;;;0.40;;
43807;SDS011;29438;50.664;10.098;2022-10-16T06:18:00;1.60;;;0.50;;
43807;SDS011;29438;50.664;10.098;2022-10-16T06:20:26;5.43;;;1.58;;
43807;SDS011;29438;50.664;10.098;2022-10-16T06:22:51;9.90;;;3.33;;
43807;SDS011;29438;50.664;10.098;2022-10-16T06:25:17;15.50;;;5.30;;
43807;SDS011;29438;50.664;10.098;2022-10-16T06:27:42;9.38;;;3.15;;
43807;SDS011;29438;50.664;10.098;2022-10-16T06:30:08;7.85;;;2.55;;
43807;SDS011;29438;50.664;10.098;2022-10-16T06:32:34;4.57;;;2.03;;
43807;SDS011;29438;50.664;10.098;2022-10-16T06:34:59;3.47;;;1.60;;
43807;SDS011;29438;50.664;10.098;2022-10-16T06:37:26;1.20;;;0.45;;
43807;SDS011;29438;50.664;10.098;2022-10-16T06:39:52;1.27;;;0.20;;
43807;SDS011;29438;50.664;10.098;2022-10-16T06:42:18;1.75;;;0.57;;
43807;SDS011;29438;50.664;10.098;2022-10-16T06:44:44;1.10;;;0.30;;
43807;SDS011;29438;50.664;10.098;2022-10-16T06:47:09;2.30;;;0.82;;
43807;SDS011;29438;50.664;10.098;2022-10-16T06:49:35;2.00;;;0.60;;
43807;SDS011;29438;50.664;10.098;2022-10-16T06:52:00;1.00;;;0.30;;
43807;SDS011;29438;50.664;10.098;2022-10-16T06:54:26;0.80;;;0.20;;
43807;SDS011;29438;50.664;10.098;2022-10-16T06:56:52;1.52;;;0.22;;
43807;SDS011;29438;50.664;10.098;2022-10-16T06:59:21;0.85;;;0.20;;
43807;SDS011;29438;50.664;10.098;2022-10-16T07:01:47;0.60;;;0.17;;
43807;SDS011;29438;50.664;10.098;2022-10-16T07:04:13;0.60;;;0.20;;
43807;SDS011;29438;50.664;10.098;2022-10-16T07:06:39;0.82;;;0.25;;
43807;SDS011;29438;50.664;10.098;2022-10-16T07:09:06;0.70;;;0.20;;
43807;SDS011;29438;50.664;10.098;2022-10-16T07:11:34;0.55;;;0.10;;
43807;SDS011;29438;50.664;10.098;2022-10-16T07:14:00;0.70;;;0.20;;
43807;SDS011;29438;50.664;10.098;2022-10-16T07:16:27;1.35;;;0.20;;
43807;SDS011;29438;50.664;10.098;2022-10-16T07:18:58;0.88;;;0.20;;
43807;SDS011;29438;50.664;10.098;2022-10-16T07:21:26;0.50;;;0.10;;
43807;SDS011;29438;50.664;10.098;2022-10-16T07:23:54;0.73;;;0.15;;
43807;SDS011;29438;50.664;10.098;2022-10-16T07:26:24;0.70;;;0.10;;
43807;SDS011;29438;50.664;10.098;2022-10-16T07:28:50;0.88;;;0.20;;
43807;SDS011;29438;50.664;10.098;2022-10-16T07:31:17;0.70;;;0.20;;
43807;SDS011;29438;50.664;10.098;2022-10-16T07:33:44;1.05;;;0.20;;
43807;SDS011;29438;50.664;10.098;2022-10-16T07:36:12;0.93;;;0.25;;
43807;SDS011;29438;50.664;10.098;2022-10-16T07:38:39;0.43;;;0.13;;
43807;SDS011;29438;50.664;10.098;2022-10-16T07:41:09;0.50;;;0.17;;
43807;SDS011;29438;50.664;10.098;2022-10-16T07:43:36;0.90;;;0.20;;
43807;SDS011;29438;50.664;10.098;2022-10-16T07:46:02;0.60;;;0.20;;
43807;SDS011;29438;50.664;10.098;2022-10-16T07:48:29;0.98;;;0.20;;
43807;SDS011;29438;50.664;10.098;2022-10-16T07:50:58;1.15;;;0.30;;
43807;SDS011;29438;50.664;10.098;2022-10-16T07:53:25;1.40;;;0.50;;
43807;SDS011;29438;50.664;10.098;2022-10-16T07:55:50;1.70;;;0.50;;
43807;SDS011;29438;50.664;10.098;2022-10-16T07:58:16;1.55;;;0.68;;
43807;SDS011;29438;50.664;10.098;2022-10-16T08:00:41;0.90;;;0.20;;
43807;SDS011;29438;50.664;10.098;2022-10-16T08:03:08;1.30;;;0.43;;
43807;SDS011;29438;50.664;10.098;2022-10-16T08:05:33;2.80;;;0.50;;
43807;SDS011;29438;50.664;10.098;2022-10-16T08:07:59;1.30;;;0.40;;
43807;SDS011;29438;50.664;10.098;2022-10-16T08:10:26;1.52;;;0.45;;
43807;SDS011;29438;50.664;10.098;2022-10-16T08:12:53;0.82;;;0.20;;
43807;SDS011;29438;50.664;10.098;2022-10-16T08:15:19;6.57;;;0.60;;
43807;SDS011;29438;50.664;10.098;2022-10-16T08:17:53;2.13;;;0.55;;
43807;SDS011;29438;50.664;10.098;2022-10-16T08:20:23;1.98;;;0.43;;
43807;SDS011;29438;50.664;10.098;2022-10-16T08:22:50;2.97;;;0.60;;
43807;SDS011;29438;50.664;10.098;2022-10-16T08:25:16;1.77;;;0.50;;
43807;SDS011;29438;50.664;10.098;2022-10-16T08:27:42;1.00;;;0.30;;
43807;SDS011;29438;50.664;10.098;2022-10-16T08:30:07;1.50;;;0.35;;
43807;SDS011;29438;50.664;10.098;2022-10-16T08:32:34;0.95;;;0.30;;
43807;SDS011;29438;50.664;10.098;2022-10-16T08:34:59;1.17;;;0.30;;
43807;SDS011;29438;50.664;10.098;2022-10-16T08:37:29;1.38;;;0.30;;
43807;SDS011;29438;50.664;10.098;2022-10-16T08:39:55;1.20;;;0.30;;
43807;SDS011;29438;50.664;10.098;2022-10-16T08:45:04;0.98;;;0.30;;
43807;SDS011;29438;50.664;10.098;2022-10-16T08:50:36;1.27;;;0.28;;
43807;SDS011;29438;50.664;10.098;2022-10-16T08:53:04;1.38;;;0.40;;
43807;SDS011;29438;50.664;10.098;2022-10-16T09:00:38;0.93;;;0.28;;
43807;SDS011;29438;50.664;10.098;2022-10-16T09:05:48;0.75;;;0.20;;
43807;SDS011;29438;50.664;10.098;2022-10-16T09:16:29;0.43;;;0.10;;
43807;SDS011;29438;50.664;10.098;2022-10-16T09:19:09;0.85;;;0.20;;
43807;SDS011;29438;50.664;10.098;2022-10-16T09:21:55;0.60;;;0.20;;
43807;SDS011;29438;50.664;10.098;2022-10-16T09:24:25;0.80;;;0.20;;
43807;SDS011;29438;50.664;10.098;2022-10-16T09:26:51;0.80;;;0.20;;
43807;SDS011;29438;50.664;10.098;2022-10-16T09:29:17;3.80;;;1.10;;
43807;SDS011;29438;50.664;10.098;2022-10-16T09:31:46;1.10;;;0.35;;
43807;SDS011;29438;50.664;10.098;2022-10-16T09:34:34;1.20;;;0.47;;
43807;SDS011;29438;50.664;10.098;2022-10-16T09:37:01;0.50;;;0.10;;
43807;SDS011;29438;50.664;10.098;2022-10-16T09:39:30;0.95;;;0.30;;
43807;SDS011;29438;50.664;10.098;2022-10-16T09:41:56;1.00;;;0.25;;
43807;SDS011;29438;50.664;10.098;2022-10-16T09:44:26;0.82;;;0.43;;
43807;SDS011;29438;50.664;10.098;2022-10-16T09:47:03;0.77;;;0.10;;
43807;SDS011;29438;50.664;10.098;2022-10-16T09:49:30;1.00;;;0.20;;
43807;SDS011;29438;50.664;10.098;2022-10-16T09:52:31;0.68;;;0.20;;
43807;SDS011;29438;50.664;10.098;2022-10-16T09:57:22;1.40;;;0.22;;
43807;SDS011;29438;50.664;10.098;2022-10-16T09:59:50;0.70;;;0.20;;
43807;SDS011;29438;50.664;10.098;2022-10-16T10:04:56;1.15;;;0.40;;
43807;SDS011;29438;50.664;10.098;2022-10-16T10:07:25;1.33;;;0.30;;
43807;SDS011;29438;50.664;10.098;2022-10-16T10:09:53;1.20;;;0.30;;
43807;SDS011;29438;50.664;10.098;2022-10-16T10:12:22;0.50;;;0.10;;
43807;SDS011;29438;50.664;10.098;2022-10-16T10:14:53;1.85;;;0.32;;
43807;SDS011;29438;50.664;10.098;2022-10-16T10:17:22;0.88;;;0.32;;
43807;SDS011;29438;50.664;10.098;2022-10-16T10:22:32;0.88;;;0.20;;
43807;SDS011;29438;50.664;10.098;2022-10-16T10:30:51;0.38;;;0.10;;
43807;SDS011;29438;50.664;10.098;2022-10-16T10:33:43;0.80;;;0.20;;
43807;SDS011;29438;50.664;10.098;2022-10-16T10:44:31;2.55;;;0.50;;
43807;SDS011;29438;50.664;10.098;2022-10-16T10:47:24;1.10;;;0.40;;
43807;SDS011;29438;50.664;10.098;2022-10-16T11:01:15;0.65;;;0.20;;
43807;SDS011;29438;50.664;10.098;2022-10-16T11:08:50;0.80;;;0.20;;
43807;SDS011;29438;50.664;10.098;2022-10-16T11:11:25;0.80;;;0.30;;
43807;SDS011;29438;50.664;10.098;2022-10-16T11:14:00;0.90;;;0.30;;
43807;SDS011;29438;50.664;10.098;2022-10-16T11:16:31;1.20;;;0.30;;
43807;SDS011;29438;50.664;10.098;2022-10-16T11:21:54;1.35;;;0.35;;
43807;SDS011;29438;50.664;10.098;2022-10-16T11:27:12;0.90;;;0.20;;
43807;SDS011;29438;50.664;10.098;2022-10-16T11:29:46;1.33;;;0.40;;
43807;SDS011;29438;50.664;10.098;2022-10-16T11:32:20;1.33;;;0.57;;
43807;SDS011;29438;50.664;10.098;2022-10-16T11:34:52;1.50;;;0.55;;
43807;SDS011;29438;50.664;10.098;2022-10-16T11:37:30;1.42;;;0.50;;
43807;SDS011;29438;50.664;10.098;2022-10-16T11:40:03;1.80;;;0.60;;
43807;SDS011;29438;50.664;10.098;2022-10-16T11:42:46;2.75;;;0.80;;
43807;SDS011;29438;50.664;10.098;2022-10-16T11:45:52;1.45;;;0.60;;
43807;SDS011;29438;50.664;10.098;2022-10-16T11:53:23;1.48;;;0.40;;
43807;SDS011;29438;50.664;10.098;2022-10-16T11:56:12;2.00;;;0.68;;
43807;SDS011;29438;50.664;10.098;2022-10-16T12:01:27;1.60;;;0.30;;
43807;SDS011;29438;50.664;10.098;2022-10-16T12:04:14;1.00;;;0.30;;
43807;SDS011;29438;50.664;10.098;2022-10-16T12:07:18;1.00;;;0.28;;
43807;SDS011;29438;50.664;10.098;2022-10-16T12:09:49;0.90;;;0.30;;
43807;SDS011;29438;50.664;10.098;2022-10-16T12:17:42;0.63;;;0.17;;
43807;SDS011;29438;50.664;10.098;2022-10-16T12:22:36;0.30;;;0.10;;
43807;SDS011;29438;50.664;10.098;2022-10-16T12:25:17;0.50;;;0.10;;
43807;SDS011;29438;50.664;10.098;2022-10-16T12:28:04;0.60;;;0.17;;
43807;SDS011;29438;50.664;10.098;2022-10-16T12:30:33;0.80;;;0.20;;
43807;SDS011;29438;50.664;10.098;2022-10-16T12:33:02;1.13;;;0.28;;
43807;SDS011;29438;50.664;10.098;2022-10-16T12:35:32;1.05;;;0.30;;
43807;SDS011;29438;50.664;10.098;2022-10-16T12:38:06;0.85;;;0.30;;
43807;SDS011;29438;50.664;10.098;2022-10-16T12:40:37;0.60;;;0.20;;
43807;SDS011;29438;50.664;10.098;2022-10-16T12:43:23;1.10;;;0.32;;
43807;SDS011;29438;50.664;10.098;2022-10-16T12:45:58;1.92;;;0.40;;
43807;SDS011;29438;50.664;10.098;2022-10-16T12:48:30;1.25;;;0.60;;
43807;SDS011;29438;50.664;10.098;2022-10-16T12:50:56;0.90;;;0.40;;
43807;SDS011;29438;50.664;10.098;2022-10-16T12:53:23;1.00;;;0.25;;
43807;SDS011;29438;50.664;10.098;2022-10-16T12:56:14;1.23;;;0.45;;
43807;SDS011;29438;50.664;10.098;2022-10-16T12:58:52;0.70;;;0.20;;
43807;SDS011;29438;50.664;10.098;2022-10-16T13:01:47;0.80;;;0.30;;
43807;SDS011;29438;50.664;10.098;2022-10-16T13:29:08;1.20;;;0.40;;
43807;SDS011;29438;50.664;10.098;2022-10-16T13:31:36;0.68;;;0.30;;
43807;SDS011;29438;50.664;10.098;2022-10-16T13:34:04;1.58;;;0.50;;
43807;SDS011;29438;50.664;10.098;2022-10-16T13:36:35;1.70;;;0.50;;
43807;SDS011;29438;50.664;10.098;2022-10-16T13:41:40;0.70;;;0.20;;
43807;SDS011;29438;50.664;10.098;2022-10-16T13:44:24;1.65;;;0.50;;
43807;SDS011;29438;50.664;10.098;2022-10-16T13:46:59;1.13;;;0.35;;
43807;SDS011;29438;50.664;10.098;2022-10-16T13:49:26;1.45;;;0.50;;
43807;SDS011;29438;50.664;10.098;2022-10-16T13:51:55;1.67;;;0.60;;
43807;SDS011;29438;50.664;10.098;2022-10-16T13:54:23;0.95;;;0.30;;
43807;SDS011;29438;50.664;10.098;2022-10-16T13:56:49;1.05;;;0.45;;
43807;SDS011;29438;50.664;10.098;2022-10-16T13:59:33;1.40;;;0.40;;
43807;SDS011;29438;50.664;10.098;2022-10-16T14:02:00;0.90;;;0.32;;
43807;SDS011;29438;50.664;10.098;2022-10-16T14:04:39;1.23;;;0.52;;
43807;SDS011;29438;50.664;10.098;2022-10-16T14:07:05;1.00;;;0.28;;
43807;SDS011;29438;50.664;10.098;2022-10-16T14:09:30;1.13;;;0.50;;
43807;SDS011;29438;50.664;10.098;2022-10-16T14:12:29;1.15;;;0.38;;
43807;SDS011;29438;50.664;10.098;2022-10-16T14:14:49;1.08;;;0.40;;
43807;SDS011;29438;50.664;10.098;2022-10-16T14:17:27;0.90;;;0.40;;
43807;SDS011;29438;50.664;10.098;2022-10-16T14:19:58;1.20;;;0.50;;
43807;SDS011;29438;50.664;10.098;2022-10-16T14:22:29;1.73;;;0.60;;
43807;SDS011;29438;50.664;10.098;2022-10-16T14:27:58;1.23;;;0.47;;
43807;SDS011;29438;50.664;10.098;2022-10-16T14:30:25;0.80;;;0.30;;
43807;SDS011;29438;50.664;10.098;2022-10-16T14:32:58;0.90;;;0.38;;
43807;SDS011;29438;50.664;10.098;2022-10-16T14:37:59;1.85;;;0.60;;
43807;SDS011;29438;50.664;10.098;2022-10-16T14:40:27;0.80;;;0.30;;
43807;SDS011;29438;50.664;10.098;2022-10-16T14:42:55;1.10;;;0.40;;
43807;SDS011;29438;50.664;10.098;2022-10-16T14:45:21;0.98;;;0.40;;
43807;SDS011;29438;50.664;10.098;2022-10-16T14:47:55;1.50;;;0.63;;
43807;SDS011;29438;50.664;10.098;2022-10-16T14:50:23;0.82;;;0.30;;
43807;SDS011;29438;50.664;10.098;2022-10-16T14:52:48;1.15;;;0.50;;
43807;SDS011;29438;50.664;10.098;2022-10-16T14:55:14;1.50;;;0.60;;
43807;SDS011;29438;50.664;10.098;2022-10-16T14:57:40;1.20;;;0.50;;
43807;SDS011;29438;50.664;10.098;2022-10-16T15:00:20;1.30;;;0.43;;
43807;SDS011;29438;50.664;10.098;2022-10-16T15:02:48;1.10;;;0.50;;
43807;SDS011;29438;50.664;10.098;2022-10-16T15:05:16;1.75;;;0.70;;
43807;SDS011;29438;50.664;10.098;2022-10-16T15:07:47;1.30;;;0.60;;
43807;SDS011;29438;50.664;10.098;2022-10-16T15:10:14;1.80;;;0.60;;
43807;SDS011;29438;50.664;10.098;2022-10-16T15:12:43;1.92;;;0.82;;
43807;SDS011;29438;50.664;10.098;2022-10-16T15:17:46;2.30;;;1.08;;
43807;SDS011;29438;50.664;10.098;2022-10-16T15:20:12;1.30;;;0.70;;
43807;SDS011;29438;50.664;10.098;2022-10-16T15:22:38;1.60;;;0.70;;
43807;SDS011;29438;50.664;10.098;2022-10-16T15:25:10;1.52;;;0.70;;
43807;SDS011;29438;50.664;10.098;2022-10-16T15:27:45;1.98;;;0.88;;
43807;SDS011;29438;50.664;10.098;2022-10-16T15:30:11;2.90;;;0.90;;
43807;SDS011;29438;50.664;10.098;2022-10-16T15:32:36;1.58;;;0.70;;
43807;SDS011;29438;50.664;10.098;2022-10-16T15:35:02;1.90;;;0.75;;
43807;SDS011;29438;50.664;10.098;2022-10-16T15:37:27;1.30;;;0.55;;
43807;SDS011;29438;50.664;10.098;2022-10-16T15:39:53;2.22;;;0.70;;
43807;SDS011;29438;50.664;10.098;2022-10-16T15:42:18;2.00;;;0.85;;
43807;SDS011;29438;50.664;10.098;2022-10-16T15:44:44;2.45;;;1.05;;
43807;SDS011;29438;50.664;10.098;2022-10-16T15:47:09;3.72;;;1.65;;
43807;SDS011;29438;50.664;10.098;2022-10-16T15:49:35;2.65;;;1.27;;
43807;SDS011;29438;50.664;10.098;2022-10-16T15:52:01;2.58;;;1.10;;
43807;SDS011;29438;50.664;10.098;2022-10-16T15:54:26;2.40;;;1.20;;
43807;SDS011;29438;50.664;10.098;2022-10-16T15:56:52;3.08;;;1.60;;
43807;SDS011;29438;50.664;10.098;2022-10-16T15:59:17;3.17;;;1.55;;
43807;SDS011;29438;50.664;10.098;2022-10-16T16:01:43;3.13;;;1.42;;
43807;SDS011;29438;50.664;10.098;2022-10-16T16:04:08;2.22;;;1.38;;
43807;SDS011;29438;50.664;10.098;2022-10-16T16:06:34;3.35;;;1.70;;
43807;SDS011;29438;50.664;10.098;2022-10-16T16:09:20;3.05;;;1.85;;
43807;SDS011;29438;50.664;10.098;2022-10-16T16:11:46;3.13;;;1.73;;
43807;SDS011;29438;50.664;10.098;2022-10-16T16:20:20;6.10;;;2.40;;
43807;SDS011;29438;50.664;10.098;2022-10-16T16:22:45;4.28;;;2.75;;
43807;SDS011;29438;50.664;10.098;2022-10-16T16:25:11;5.60;;;2.47;;
43807;SDS011;29438;50.664;10.098;2022-10-16T16:27:36;3.25;;;1.75;;
43807;SDS011;29438;50.664;10.098;2022-10-16T16:30:03;2.80;;;1.50;;
43807;SDS011;29438;50.664;10.098;2022-10-16T16:32:32;4.85;;;2.05;;
43807;SDS011;29438;50.664;10.098;2022-10-16T16:34:58;6.10;;;2.40;;
43807;SDS011;29438;50.664;10.098;2022-10-16T16:37:23;5.78;;;2.60;;
43807;SDS011;29438;50.664;10.098;2022-10-16T16:39:49;5.63;;;2.40;;
43807;SDS011;29438;50.664;10.098;2022-10-16T16:42:15;3.42;;;1.58;;
43807;SDS011;29438;50.664;10.098;2022-10-16T16:44:41;2.50;;;1.30;;
43807;SDS011;29438;50.664;10.098;2022-10-16T16:47:06;3.35;;;1.50;;
43807;SDS011;29438;50.664;10.098;2022-10-16T16:49:32;3.22;;;1.50;;
43807;SDS011;29438;50.664;10.098;2022-10-16T16:51:58;4.90;;;1.98;;
43807;SDS011;29438;50.664;10.098;2022-10-16T16:54:23;5.00;;;2.00;;
43807;SDS011;29438;50.664;10.098;2022-10-16T16:56:49;5.68;;;2.25;;
43807;SDS011;29438;50.664;10.098;2022-10-16T16:59:16;6.35;;;2.60;;
43807;SDS011;29438;50.664;10.098;2022-10-16T17:01:44;6.70;;;2.53;;